createdAt,value
2023-03-28T00:01:04.584Z,2.28
2023-03-28T00:03:35.870Z,2.33
2023-03-28T00:06:05.607Z,2.53
2023-03-28T00:08:32.622Z,2.72
2023-03-28T00:11:12.853Z,2.30
2023-03-28T00:13:39.548Z,2.17
2023-03-28T00:16:09.101Z,2.88
2023-03-28T00:18:39.207Z,2.35
2023-03-28T00:21:19.745Z,2.40
2023-03-28T00:23:46.552Z,2.55
2023-03-28T00:26:13.506Z,2.60
2023-03-28T00:28:40.108Z,2.22
2023-03-28T00:31:07.965Z,2.17
2023-03-28T00:33:34.865Z,2.55
2023-03-28T00:36:01.865Z,2.55
2023-03-28T00:38:28.971Z,2.53
2023-03-28T00:40:57.751Z,2.10
2023-03-28T00:43:41.605Z,2.22
2023-03-28T00:46:15.115Z,2.05
2023-03-28T00:48:49.447Z,2.22
2023-03-28T00:51:19.413Z,1.90
2023-03-28T00:53:46.549Z,2.28
2023-03-28T00:56:16.605Z,2.30
2023-03-28T00:58:44.910Z,2.72
2023-03-28T01:01:15.929Z,2.45
2023-03-28T01:03:46.520Z,2.47
2023-03-28T01:06:15.341Z,2.33
2023-03-28T01:08:46.378Z,2.75
2023-03-28T01:11:14.647Z,2.60
2023-03-28T01:13:48.432Z,2.60
2023-03-28T01:16:16.007Z,2.38
2023-03-28T01:18:51.562Z,2.35
2023-03-28T01:21:53.895Z,2.58
2023-03-28T01:27:07.177Z,2.58
2023-03-28T01:29:49.086Z,2.90
2023-03-28T01:32:28.869Z,5.15
2023-03-28T01:35:23.154Z,3.35
2023-03-28T01:38:08.306Z,3.30
2023-03-28T01:40:49.044Z,3.13
2023-03-28T01:43:31.413Z,2.85
2023-03-28T01:46:12.959Z,2.60
2023-03-28T01:48:48.684Z,2.58
2023-03-28T01:51:18.393Z,2.45
2023-03-28T01:53:59.919Z,3.17
2023-03-28T01:56:47.793Z,2.35
2023-03-28T01:59:26.364Z,2.72
2023-03-28T02:02:05.859Z,2.42
2023-03-28T02:04:36.355Z,2.28
2023-03-28T02:07:04.463Z,2.03
2023-03-28T02:09:33.541Z,2.72
2023-03-28T02:12:08.303Z,2.40
2023-03-28T02:14:41.387Z,2.83
2023-03-28T02:17:15.780Z,2.63
2023-03-28T02:19:59.525Z,2.28
2023-03-28T02:22:37.271Z,3.08
2023-03-28T02:25:04.427Z,3.33
2023-03-28T02:27:32.926Z,2.88
2023-03-28T02:30:00.328Z,3.58
2023-03-28T02:32:26.952Z,3.20
2023-03-28T02:34:55.671Z,3.47
2023-03-28T02:37:36.323Z,3.40
2023-03-28T02:40:21.705Z,3.05
2023-03-28T02:43:05.136Z,3.20
2023-03-28T02:45:40.934Z,2.97
2023-03-28T02:48:25.725Z,3.80
2023-03-28T02:51:19.766Z,3.20
2023-03-28T02:54:08.589Z,2.92
2023-03-28T02:57:05.291Z,2.50
2023-03-28T02:59:41.540Z,3.38
2023-03-28T03:02:08.764Z,2.80
2023-03-28T03:04:35.398Z,3.35
2023-03-28T03:07:02.587Z,3.35
2023-03-28T03:09:29.587Z,3.40
2023-03-28T03:11:56.167Z,3.28
2023-03-28T03:14:23.173Z,4.13
2023-03-28T03:16:51.715Z,2.92
2023-03-28T03:19:19.079Z,3.05
2023-03-28T03:21:46.615Z,2.85
2023-03-28T03:24:14.464Z,3.30
2023-03-28T03:26:41.137Z,2.92
2023-03-28T03:29:07.782Z,3.42
2023-03-28T03:31:34.713Z,3.38
2023-03-28T03:34:02.072Z,3.55
2023-03-28T03:36:30.517Z,5.03
2023-03-28T03:38:57.323Z,3.97
2023-03-28T03:41:23.943Z,3.28
2023-03-28T03:43:50.548Z,3.50
2023-03-28T03:46:17.697Z,3.72
2023-03-28T03:48:50.179Z,4.07
2023-03-28T03:51:17.432Z,3.40
2023-03-28T03:53:45.046Z,3.97
2023-03-28T03:56:11.606Z,4.20
2023-03-28T03:58:38.161Z,3.42
2023-03-28T04:01:04.850Z,4.18
2023-03-28T04:03:33.884Z,3.63
2023-03-28T04:06:02.140Z,4.18
2023-03-28T04:08:28.971Z,4.50
2023-03-28T04:10:55.639Z,3.72
2023-03-28T04:13:22.364Z,3.80
2023-03-28T04:15:48.951Z,4.55
2023-03-28T04:18:17.799Z,4.38
2023-03-28T04:20:49.584Z,5.25
2023-03-28T04:23:18.534Z,5.20
2023-03-28T04:25:45.068Z,5.70
2023-03-28T04:28:11.615Z,4.57
2023-03-28T04:30:38.456Z,4.75
2023-03-28T04:33:05.128Z,4.60
2023-03-28T04:35:35.446Z,4.80
2023-03-28T04:38:02.753Z,4.78
2023-03-28T04:40:29.428Z,4.97
2023-03-28T04:42:56.072Z,4.72
2023-03-28T04:45:23.533Z,5.10
2023-03-28T04:47:50.110Z,4.38
2023-03-28T04:50:16.854Z,4.85
2023-03-28T04:52:43.525Z,4.35
2023-03-28T04:55:10.394Z,4.93
2023-03-28T04:57:38.230Z,4.28
2023-03-28T05:00:17.242Z,4.93
2023-03-28T05:02:44.015Z,4.60
2023-03-28T05:05:10.660Z,4.40
2023-03-28T05:07:37.260Z,4.28
2023-03-28T05:10:04.362Z,4.18
2023-03-28T05:12:30.910Z,4.22
2023-03-28T05:14:57.571Z,4.30
2023-03-28T05:17:24.859Z,4.43
2023-03-28T05:19:51.520Z,4.15
2023-03-28T05:22:18.064Z,4.07
2023-03-28T05:24:44.621Z,4.40
2023-03-28T05:27:11.263Z,4.32
2023-03-28T05:29:37.791Z,4.70
2023-03-28T05:32:04.678Z,4.30
2023-03-28T05:34:31.440Z,5.20
2023-03-28T05:36:58.028Z,5.30
2023-03-28T05:39:24.587Z,5.63
2023-03-28T05:41:51.109Z,5.68
2023-03-28T05:44:18.776Z,6.18
2023-03-28T05:46:45.546Z,5.50
2023-03-28T05:49:12.162Z,6.30
2023-03-28T05:51:38.682Z,5.57
2023-03-28T05:54:05.488Z,5.57
2023-03-28T05:56:35.370Z,5.35
2023-03-28T05:59:02.183Z,5.38
2023-03-28T06:01:29.292Z,5.45
2023-03-28T06:03:56.101Z,6.53
2023-03-28T06:06:22.825Z,5.43
2023-03-28T06:08:49.403Z,5.88
2023-03-28T06:11:16.132Z,5.70
2023-03-28T06:13:42.690Z,5.50
2023-03-28T06:16:09.553Z,5.20
2023-03-28T06:18:36.144Z,5.20
2023-03-28T06:21:02.885Z,5.50
2023-03-28T06:23:29.486Z,4.88
2023-03-28T06:25:56.279Z,5.07
2023-03-28T06:28:22.892Z,5.07
2023-03-28T06:30:50.365Z,5.55
2023-03-28T06:33:17.116Z,5.65
2023-03-28T06:35:43.813Z,6.07
2023-03-28T06:38:10.819Z,5.15
2023-03-28T06:40:37.630Z,5.80
2023-03-28T06:43:04.278Z,5.93
2023-03-28T06:45:30.808Z,6.32
2023-03-28T06:47:57.347Z,7.15
2023-03-28T06:50:23.991Z,6.78
2023-03-28T06:52:50.554Z,6.75
2023-03-28T06:55:17.182Z,6.82
2023-03-28T06:57:43.784Z,6.60
2023-03-28T07:00:11.439Z,6.88
2023-03-28T07:02:38.011Z,6.22
2023-03-28T07:05:04.942Z,7.10
2023-03-28T07:07:31.760Z,7.72
2023-03-28T07:09:58.258Z,7.68
2023-03-28T07:12:24.812Z,7.03
2023-03-28T07:14:51.476Z,8.55
2023-03-28T07:17:18.025Z,7.32
2023-03-28T07:19:46.088Z,7.85
2023-03-28T07:22:12.642Z,7.88
2023-03-28T07:24:39.245Z,7.18
2023-03-28T07:29:35.441Z,7.47
2023-03-28T07:32:02.088Z,7.55
2023-03-28T07:34:28.649Z,7.80
2023-03-28T07:36:56.071Z,7.53
2023-03-28T07:39:22.781Z,7.57
2023-03-28T07:41:49.337Z,6.97
2023-03-28T07:44:15.963Z,7.63
2023-03-28T07:46:43.292Z,6.90
2023-03-28T07:49:10.712Z,6.28
2023-03-28T07:51:37.504Z,5.90
2023-03-28T07:54:05.077Z,7.25
2023-03-28T07:56:31.758Z,6.35
2023-03-28T07:58:58.433Z,6.60
2023-03-28T08:01:25.067Z,5.82
2023-03-28T08:03:51.699Z,5.70
2023-03-28T08:06:31.775Z,5.28
2023-03-28T08:08:59.171Z,6.25
2023-03-28T08:11:27.191Z,5.45
2023-03-28T08:13:53.984Z,5.32
2023-03-28T08:16:20.751Z,5.78
2023-03-28T08:18:54.401Z,6.07
2023-03-28T08:21:31.042Z,5.70
2023-03-28T08:23:58.701Z,5.07
2023-03-28T08:26:25.941Z,5.28
2023-03-28T08:28:54.840Z,6.65
2023-03-28T08:31:26.862Z,5.85
2023-03-28T08:33:55.082Z,6.35
2023-03-28T08:36:23.790Z,6.03
2023-03-28T08:38:50.976Z,5.18
2023-03-28T08:41:31.448Z,5.60
2023-03-28T08:44:36.515Z,4.70
2023-03-28T08:47:20.074Z,4.90
2023-03-28T08:49:53.392Z,4.65
2023-03-28T08:52:21.454Z,5.07
2023-03-28T08:54:55.397Z,5.13
2023-03-28T08:57:27.162Z,5.45
2023-03-28T09:00:15.489Z,6.13
2023-03-28T09:02:43.570Z,5.10
2023-03-28T09:05:23.140Z,5.53
2023-03-28T09:08:09.149Z,5.10
2023-03-28T09:11:16.308Z,5.15
2023-03-28T09:14:12.331Z,5.05
2023-03-28T09:17:09.572Z,5.20
2023-03-28T09:20:00.428Z,5.35
2023-03-28T09:22:47.018Z,5.50
2023-03-28T09:25:37.403Z,4.53
2023-03-28T09:28:30.937Z,4.97
2023-03-28T09:30:59.482Z,4.95
2023-03-28T09:33:33.384Z,4.32
2023-03-28T09:36:02.042Z,4.63
2023-03-28T09:38:38.182Z,3.47
2023-03-28T09:41:14.474Z,3.83
2023-03-28T09:43:48.723Z,3.85
2023-03-28T09:46:20.873Z,3.65
2023-03-28T09:48:48.334Z,3.65
2023-03-28T09:51:16.984Z,4.15
2023-03-28T09:53:44.276Z,4.40
2023-03-28T09:56:26.070Z,3.90
2023-03-28T09:59:05.052Z,3.30
2023-03-28T10:01:37.381Z,4.00
2023-03-28T10:04:13.347Z,3.42
2023-03-28T10:06:41.729Z,3.92
2023-03-28T10:09:16.815Z,3.80
2023-03-28T10:12:04.685Z,3.65
2023-03-28T10:14:42.608Z,3.85
2023-03-28T10:17:27.627Z,3.90
2023-03-28T10:20:01.521Z,3.10
2023-03-28T10:22:32.737Z,2.60
2023-03-28T10:25:00.178Z,3.03
2023-03-28T10:27:32.982Z,3.10
2023-03-28T10:30:12.369Z,3.38
2023-03-28T10:32:39.100Z,2.88
2023-03-28T10:35:20.651Z,2.90
2023-03-28T10:37:48.708Z,2.90
2023-03-28T10:40:19.039Z,2.72
2023-03-28T10:42:47.239Z,2.53
2023-03-28T10:45:21.640Z,2.70
2023-03-28T10:47:51.644Z,3.13
2023-03-28T10:50:43.854Z,2.42
2023-03-28T10:53:37.077Z,2.63
2023-03-28T10:56:33.821Z,2.35
2023-03-28T10:59:17.782Z,2.78
2023-03-28T11:02:12.161Z,2.60
2023-03-28T11:05:03.326Z,2.75
2023-03-28T11:07:44.874Z,2.95
2023-03-28T11:10:37.055Z,2.80
2023-03-28T11:13:23.912Z,2.70
2023-03-28T11:16:14.954Z,2.50
2023-03-28T11:18:58.721Z,2.20
2023-03-28T11:21:44.114Z,2.53
2023-03-28T11:24:19.768Z,2.22
2023-03-28T11:27:15.628Z,2.45
2023-03-28T11:30:11.262Z,2.08
2023-03-28T11:32:41.665Z,2.53
2023-03-28T11:35:31.808Z,2.10
2023-03-28T11:38:10.370Z,2.47
2023-03-28T11:40:39.600Z,2.13
2023-03-28T11:43:11.544Z,1.88
2023-03-28T11:45:52.243Z,1.90
2023-03-28T11:48:31.818Z,2.05
2023-03-28T11:51:16.566Z,2.50
2023-03-28T11:53:57.100Z,2.10
2023-03-28T11:57:11.694Z,2.30
2023-03-28T12:00:32.701Z,2.10
2023-03-28T12:03:07.543Z,2.13
2023-03-28T12:05:40.509Z,2.30
2023-03-28T12:08:27.328Z,2.00
2023-03-28T12:10:59.023Z,1.95
2023-03-28T12:13:31.819Z,2.10
2023-03-28T12:16:07.196Z,1.90
2023-03-28T12:18:43.961Z,1.80
2023-03-28T12:21:19.102Z,1.73
2023-03-28T12:24:16.695Z,2.13
2023-03-28T12:27:10.855Z,2.00
2023-03-28T12:29:56.637Z,1.90
2023-03-28T12:32:42.942Z,1.85
2023-03-28T12:35:21.464Z,2.00
2023-03-28T12:38:06.754Z,2.05
2023-03-28T12:41:11.909Z,2.28
2023-03-28T12:44:08.328Z,2.05
2023-03-28T12:46:46.151Z,2.30
2023-03-28T12:49:16.385Z,2.33
2023-03-28T12:51:46.854Z,2.78
2023-03-28T12:54:16.416Z,2.83
2023-03-28T12:56:47.544Z,2.90
2023-03-28T12:59:36.040Z,2.43
2023-03-28T13:02:29.247Z,2.42
2023-03-28T13:05:04.952Z,3.13
2023-03-28T13:08:02.726Z,3.08
2023-03-28T13:10:29.413Z,2.80
2023-03-28T13:13:23.687Z,3.20
2023-03-28T13:16:03.732Z,2.63
2023-03-28T13:18:34.807Z,2.70
2023-03-28T13:21:04.567Z,2.88
2023-03-28T13:23:39.450Z,3.10
2023-03-28T13:26:06.868Z,3.20
2023-03-28T13:28:41.239Z,2.85
2023-03-28T13:31:25.825Z,3.20
2023-03-28T13:34:01.001Z,2.78
2023-03-28T13:36:29.985Z,2.95
2023-03-28T13:39:08.482Z,3.30
2023-03-28T13:41:40.822Z,2.80
2023-03-28T13:44:21.858Z,3.13
2023-03-28T13:46:50.026Z,2.90
2023-03-28T13:49:40.841Z,3.22
2023-03-28T13:52:14.561Z,3.30
2023-03-28T13:54:41.174Z,2.60
2023-03-28T13:57:15.769Z,3.70
2023-03-28T13:59:54.104Z,3.03
2023-03-28T14:02:47.849Z,2.83
2023-03-28T14:05:24.858Z,2.90
2023-03-28T14:07:52.833Z,2.67
2023-03-28T14:10:29.487Z,2.78
2023-03-28T14:13:06.089Z,3.22
2023-03-28T14:15:36.344Z,2.70
2023-03-28T14:18:03.756Z,2.95
2023-03-28T14:20:33.412Z,3.25
2023-03-28T14:23:01.550Z,2.75
2023-03-28T14:25:28.815Z,2.97
2023-03-28T14:27:57.095Z,2.97
2023-03-28T14:30:23.755Z,2.88
2023-03-28T14:32:59.254Z,3.50
2023-03-28T14:35:34.402Z,3.00
2023-03-28T14:38:03.711Z,3.25
2023-03-28T14:40:37.503Z,3.05
2023-03-28T14:43:10.452Z,3.20
2023-03-28T14:45:41.183Z,3.20
2023-03-28T14:48:13.234Z,3.10
2023-03-28T14:53:12.665Z,3.20
2023-03-28T14:58:06.700Z,2.92
2023-03-28T15:00:37.689Z,3.33
2023-03-28T15:03:07.394Z,3.38
2023-03-28T15:05:35.149Z,3.25
2023-03-28T15:08:03.889Z,3.40
2023-03-28T15:10:31.052Z,3.30
2023-03-28T15:13:04.450Z,3.50
2023-03-28T15:15:37.136Z,3.30
2023-03-28T15:18:11.368Z,3.03
2023-03-28T15:20:39.289Z,3.10
2023-03-28T15:23:13.656Z,2.85
2023-03-28T15:25:43.666Z,2.95
2023-03-28T15:28:16.278Z,3.00
2023-03-28T15:30:45.300Z,3.08
2023-03-28T15:33:18.520Z,3.10
2023-03-28T15:35:45.862Z,3.60
2023-03-28T15:38:12.420Z,3.00
2023-03-28T15:40:44.549Z,2.65
2023-03-28T15:43:29.211Z,2.80
2023-03-28T15:46:01.717Z,2.88
2023-03-28T15:48:34.132Z,2.47
2023-03-28T15:51:04.982Z,2.92
2023-03-28T15:53:32.435Z,3.17
2023-03-28T15:56:08.812Z,3.22
2023-03-28T15:58:42.265Z,3.00
2023-03-28T16:01:20.285Z,2.67
2023-03-28T16:03:46.943Z,2.75
2023-03-28T16:06:30.984Z,2.65
2023-03-28T16:09:20.336Z,2.53
2023-03-28T16:11:58.473Z,2.80
2023-03-28T16:14:25.347Z,2.88
2023-03-28T16:16:56.750Z,2.85
2023-03-28T16:19:26.467Z,2.50
2023-03-28T16:21:53.873Z,2.50
2023-03-28T16:24:20.866Z,2.20
2023-03-28T16:26:47.928Z,2.53
2023-03-28T16:29:14.607Z,2.20
2023-03-28T16:31:42.929Z,2.78
2023-03-28T16:34:10.217Z,2.65
2023-03-28T16:36:38.005Z,2.45
2023-03-28T16:39:06.378Z,2.35
2023-03-28T16:41:32.909Z,2.10
2023-03-28T16:43:59.584Z,2.40
2023-03-28T16:46:26.203Z,2.08
2023-03-28T16:48:52.756Z,2.20
2023-03-28T16:51:19.327Z,2.10
2023-03-28T16:53:45.875Z,2.10
2023-03-28T16:56:12.592Z,1.85
2023-03-28T16:58:39.515Z,2.47
2023-03-28T17:01:11.058Z,2.13
2023-03-28T17:03:37.882Z,2.92
2023-03-28T17:06:06.836Z,2.20
2023-03-28T17:08:34.182Z,2.67
2023-03-28T17:11:01.240Z,2.58
2023-03-28T17:13:28.101Z,2.10
2023-03-28T17:15:56.362Z,2.42
2023-03-28T17:18:23.019Z,2.45
2023-03-28T17:21:07.279Z,2.78
2023-03-28T17:23:34.931Z,2.22
2023-03-28T17:26:02.080Z,2.50
2023-03-28T17:28:29.273Z,2.40
2023-03-28T17:30:56.636Z,2.80
2023-03-28T17:33:23.446Z,3.40
2023-03-28T17:35:50.355Z,3.08
2023-03-28T17:38:16.908Z,2.85
2023-03-28T17:40:49.685Z,2.78
2023-03-28T17:43:16.510Z,2.25
2023-03-28T17:45:43.524Z,2.22
2023-03-28T17:48:12.559Z,2.50
2023-03-28T17:50:39.340Z,2.50
2023-03-28T17:53:06.885Z,2.65
2023-03-28T17:55:34.050Z,2.72
2023-03-28T17:58:01.184Z,2.70
2023-03-28T18:00:30.224Z,2.53
2023-03-28T18:02:57.996Z,2.60
2023-03-28T18:05:24.579Z,2.50
2023-03-28T18:07:52.026Z,2.95
2023-03-28T18:10:18.779Z,4.40
2023-03-28T18:12:45.341Z,2.78
2023-03-28T18:15:11.880Z,3.10
2023-03-28T18:17:38.752Z,3.90
2023-03-28T18:20:06.069Z,4.03
2023-03-28T18:22:32.951Z,3.42
2023-03-28T18:24:59.563Z,2.65
2023-03-28T18:27:26.444Z,2.97
2023-03-28T18:29:53.198Z,3.22
2023-03-28T18:32:19.729Z,3.03
2023-03-28T18:34:46.643Z,3.10
2023-03-28T18:37:13.189Z,2.75
2023-03-28T18:39:41.741Z,2.92
2023-03-28T18:42:08.704Z,2.95
2023-03-28T18:44:37.140Z,2.63
2023-03-28T18:47:05.272Z,3.15
2023-03-28T18:49:32.179Z,2.58
2023-03-28T18:52:04.421Z,2.47
2023-03-28T18:54:34.828Z,2.70
2023-03-28T18:57:01.591Z,3.20
2023-03-28T18:59:28.289Z,2.58
2023-03-28T19:01:54.943Z,2.80
2023-03-28T19:04:23.490Z,3.35
2023-03-28T19:06:51.856Z,3.05
2023-03-28T19:09:18.635Z,3.20
2023-03-28T19:11:45.616Z,3.53
2023-03-28T19:14:12.272Z,3.10
2023-03-28T19:16:38.844Z,2.72
2023-03-28T19:19:05.481Z,2.40
2023-03-28T19:21:32.151Z,2.22
2023-03-28T19:23:58.672Z,2.33
2023-03-28T19:26:26.389Z,2.15
2023-03-28T19:28:53.590Z,2.58
2023-03-28T19:31:24.154Z,2.95
2023-03-28T19:33:51.660Z,3.70
2023-03-28T19:36:18.411Z,3.80
2023-03-28T19:38:45.029Z,2.88
2023-03-28T19:41:17.866Z,3.30
2023-03-28T19:43:45.119Z,2.58
2023-03-28T19:46:32.430Z,2.72
2023-03-28T19:49:02.307Z,3.08
2023-03-28T19:51:29.207Z,2.95
2023-03-28T19:53:55.940Z,3.50
2023-03-28T19:56:23.518Z,3.40
2023-03-28T19:58:52.013Z,2.90
2023-03-28T20:01:19.846Z,2.53
2023-03-28T20:03:48.486Z,2.80
2023-03-28T20:06:16.518Z,2.60
2023-03-28T20:08:43.371Z,3.67
2023-03-28T20:11:11.987Z,3.00
2023-03-28T20:13:39.443Z,3.13
2023-03-28T20:16:08.081Z,3.05
2023-03-28T20:18:36.301Z,3.30
2023-03-28T20:21:06.203Z,3.65
2023-03-28T20:23:33.751Z,3.22
2023-03-28T20:26:01.619Z,2.95
2023-03-28T20:28:33.878Z,3.70
2023-03-28T20:31:00.761Z,4.47
2023-03-28T20:33:27.575Z,4.15
2023-03-28T20:35:56.693Z,3.72
2023-03-28T20:38:24.692Z,3.33
2023-03-28T20:40:52.021Z,4.07
2023-03-28T20:43:24.122Z,3.50
2023-03-28T20:48:34.235Z,4.25
2023-03-28T20:51:06.260Z,3.85
2023-03-28T20:53:33.542Z,3.08
2023-03-28T20:56:04.976Z,4.70
2023-03-28T20:58:33.137Z,4.72
2023-03-28T21:01:01.740Z,4.30
2023-03-28T21:03:47.817Z,4.00
2023-03-28T21:06:26.046Z,5.00
2023-03-28T21:08:55.106Z,4.70
2023-03-28T21:11:26.075Z,4.53
2023-03-28T21:13:52.779Z,3.90
2023-03-28T21:16:21.001Z,4.07
2023-03-28T21:18:48.560Z,3.55
2023-03-28T21:21:17.341Z,3.30
2023-03-28T21:23:45.122Z,4.05
2023-03-28T21:26:15.196Z,3.80
2023-03-28T21:28:42.077Z,4.68
2023-03-28T21:31:18.282Z,3.80
2023-03-28T21:33:45.802Z,3.75
2023-03-28T21:36:15.987Z,3.83
2023-03-28T21:38:44.482Z,4.03
2023-03-28T21:41:12.248Z,4.15
2023-03-28T21:43:39.340Z,3.90
2023-03-28T21:46:07.694Z,3.30
2023-03-28T21:48:35.217Z,3.83
2023-03-28T21:51:02.473Z,4.90
2023-03-28T21:53:32.686Z,4.28
2023-03-28T21:55:59.924Z,4.30
2023-03-28T21:58:29.661Z,4.68
2023-03-28T22:00:56.769Z,4.18
2023-03-28T22:03:23.985Z,4.25
2023-03-28T22:05:51.906Z,3.50
2023-03-28T22:08:19.110Z,3.75
2023-03-28T22:10:52.609Z,3.38
2023-03-28T22:13:20.192Z,3.15
2023-03-28T22:15:46.916Z,3.55
2023-03-28T22:18:13.824Z,3.17
2023-03-28T22:20:43.627Z,3.60
2023-03-28T22:23:10.712Z,3.33
2023-03-28T22:25:38.420Z,3.25
2023-03-28T22:28:10.049Z,3.08
2023-03-28T22:30:40.490Z,3.40
2023-03-28T22:33:09.872Z,3.40
2023-03-28T22:35:37.025Z,3.40
2023-03-28T22:38:04.087Z,2.95
2023-03-28T22:40:32.039Z,3.03
2023-03-28T22:42:58.769Z,3.00
2023-03-28T22:45:28.645Z,3.88
2023-03-28T22:47:58.300Z,3.03
2023-03-28T22:50:25.990Z,2.75
2023-03-28T22:52:53.108Z,3.28
2023-03-28T22:55:22.907Z,3.08
2023-03-28T22:57:51.605Z,2.92
2023-03-28T23:00:21.691Z,3.35
2023-03-28T23:02:49.123Z,3.85
2023-03-28T23:05:15.830Z,4.30
2023-03-28T23:07:42.916Z,3.72
2023-03-28T23:10:14.367Z,3.60
2023-03-28T23:12:42.747Z,3.97
2023-03-28T23:15:10.142Z,4.53
2023-03-28T23:17:37.265Z,3.78
2023-03-28T23:20:12.624Z,3.58
2023-03-28T23:22:40.475Z,4.45
2023-03-28T23:25:07.920Z,4.05
2023-03-28T23:27:34.636Z,3.88
2023-03-28T23:30:01.274Z,3.53
2023-03-28T23:32:27.815Z,3.88
2023-03-28T23:34:54.411Z,3.05
2023-03-28T23:37:25.988Z,3.25
2023-03-28T23:39:56.073Z,3.03
2023-03-28T23:42:23.911Z,3.45
2023-03-28T23:44:51.818Z,3.40
2023-03-28T23:47:20.578Z,3.55
2023-03-28T23:49:47.624Z,3.45
2023-03-28T23:52:14.351Z,3.35
2023-03-28T23:54:40.911Z,3.20
2023-03-28T23:57:08.024Z,2.92
2023-03-28T23:59:35.422Z,3.33
